Algiers, Louisiana
Current Conditions -  °F | °C
As of 7:55 PM on Friday 31 Oct 2014 (Local Time) from KVSH Reporting Station
Clear Clear  
Wind Chill: 68°   Ceiling: Unl
Heat Index: 68°   Visibility: 10mi
Dew Point: 45°   Wind: 13mph
Humidity: 43%   Direction: 350°N
Pressure: 30.11"   Gusts: 22mph
Location:  29.935°N, 90.0314°W
Report Text: KVSH 010055Z AUTO 35011G19KT 320V020 10SM CLR 20/07 A3011 RMK AO1
Loading
Personal Weather Stations






























Interactive Weather Map
Tropical Storm Tracking
New forecast layout! Learn more

10-Day Weather Forecast

Advertisements
Track Severe Weather on mobile